createdAt,value
2022-12-03T00:02:01.545Z,35.70
2022-12-03T00:05:06.368Z,34.80
2022-12-03T00:08:23.331Z,27.92
2022-12-03T00:11:28.225Z,27.92
2022-12-03T00:14:32.665Z,28.83
2022-12-03T00:17:37.138Z,28.88
2022-12-03T00:20:46.587Z,31.25
2022-12-03T00:23:51.798Z,27.38
2022-12-03T00:26:56.692Z,33.13
2022-12-03T00:30:01.490Z,26.08
2022-12-03T00:33:06.046Z,31.27
2022-12-03T00:36:13.384Z,27.48
2022-12-03T00:39:21.196Z,26.42
2022-12-03T00:42:26.383Z,26.40
2022-12-03T00:45:41.571Z,30.30
2022-12-03T00:48:46.536Z,35.60
2022-12-03T00:51:55.127Z,34.42
2022-12-03T00:55:00.599Z,28.67
2022-12-03T00:58:05.474Z,28.75
2022-12-03T01:01:09.900Z,29.95
2022-12-03T01:04:14.653Z,23.85
2022-12-03T01:07:20.288Z,30.45
2022-12-03T01:10:25.244Z,28.80
2022-12-03T01:13:30.518Z,28.05
2022-12-03T01:16:36.083Z,30.50
2022-12-03T01:19:47.899Z,28.85
2022-12-03T01:22:55.701Z,32.72
2022-12-03T01:26:07.567Z,30.80
2022-12-03T01:29:15.483Z,30.80
2022-12-03T01:32:20.069Z,34.50
2022-12-03T01:35:24.574Z,36.60
2022-12-03T01:38:29.788Z,30.33
2022-12-03T01:41:36.557Z,41.92
2022-12-03T01:44:42.139Z,31.85
2022-12-03T01:47:49.010Z,33.35
2022-12-03T01:50:54.014Z,31.25
2022-12-03T01:54:00.903Z,33.08
2022-12-03T01:57:13.916Z,31.10
2022-12-03T02:00:24.833Z,33.85
2022-12-03T02:03:31.747Z,32.08
2022-12-03T02:06:39.081Z,30.67
2022-12-03T02:09:46.526Z,35.03
2022-12-03T02:13:00.299Z,29.27
2022-12-03T02:19:30.337Z,34.25
2022-12-03T02:22:57.213Z,31.38
2022-12-03T02:26:02.429Z,33.67
2022-12-03T02:29:07.441Z,33.95
2022-12-03T02:32:12.509Z,28.85
2022-12-03T02:35:24.095Z,30.67
2022-12-03T02:38:34.867Z,33.58
2022-12-03T02:42:01.070Z,34.28
2022-12-03T02:45:07.259Z,31.98
2022-12-03T02:48:23.681Z,31.17
2022-12-03T02:51:28.791Z,27.92
2022-12-03T02:54:33.936Z,30.42
2022-12-03T02:57:40.056Z,26.98
2022-12-03T03:00:46.365Z,25.20
2022-12-03T03:03:54.288Z,25.27
2022-12-03T03:06:59.265Z,23.13
2022-12-03T03:10:07.330Z,26.33
2022-12-03T03:13:17.394Z,25.15
2022-12-03T03:16:22.188Z,24.20
2022-12-03T03:19:27.727Z,22.30
2022-12-03T03:22:38.387Z,23.40
2022-12-03T03:25:47.415Z,22.98
2022-12-03T03:28:52.755Z,25.58
2022-12-03T03:31:58.720Z,24.30
2022-12-03T03:35:04.540Z,27.02
2022-12-03T03:38:09.951Z,28.35
2022-12-03T03:41:15.575Z,27.48
2022-12-03T03:44:20.713Z,29.27
2022-12-03T03:47:25.801Z,28.50
2022-12-03T03:50:32.113Z,26.52
2022-12-03T03:53:45.651Z,28.05
2022-12-03T03:56:51.210Z,32.45
2022-12-03T03:59:55.615Z,28.58
2022-12-03T04:02:59.938Z,30.20
2022-12-03T04:06:04.619Z,32.38
2022-12-03T04:09:08.940Z,28.63
2022-12-03T04:12:32.299Z,32.33
2022-12-03T04:15:36.959Z,26.95
2022-12-03T04:18:44.049Z,28.45
2022-12-03T04:22:06.600Z,28.70
2022-12-03T04:25:34.319Z,26.77
2022-12-03T04:28:51.183Z,27.73
2022-12-03T04:32:14.418Z,31.65
2022-12-03T04:35:37.405Z,29.08
2022-12-03T04:38:42.230Z,27.27
2022-12-03T04:41:46.912Z,25.05
2022-12-03T04:44:51.423Z,24.90
2022-12-03T04:47:56.163Z,26.40
2022-12-03T04:51:00.625Z,22.58
2022-12-03T04:54:06.176Z,24.42
2022-12-03T04:57:11.292Z,23.40
2022-12-03T05:00:16.629Z,22.70
2022-12-03T05:03:31.781Z,24.05
2022-12-03T05:06:36.841Z,26.17
2022-12-03T05:09:44.425Z,24.27
2022-12-03T05:12:49.207Z,23.20
2022-12-03T05:15:53.801Z,21.42
2022-12-03T05:18:58.559Z,26.23
2022-12-03T05:22:03.229Z,23.35
2022-12-03T05:25:08.872Z,25.95
2022-12-03T05:28:13.529Z,29.40
2022-12-03T05:31:18.099Z,22.90
2022-12-03T05:34:25.941Z,23.90
2022-12-03T05:37:31.039Z,28.27
2022-12-03T05:40:35.811Z,23.63
2022-12-03T05:43:40.744Z,26.02
2022-12-03T05:46:45.695Z,27.73
2022-12-03T05:49:50.804Z,22.98
2022-12-03T05:52:56.522Z,26.45
2022-12-03T05:56:01.480Z,23.77
2022-12-03T05:59:12.341Z,30.60
2022-12-03T06:02:17.646Z,26.52
2022-12-03T06:05:25.985Z,27.05
2022-12-03T06:08:30.941Z,23.73
2022-12-03T06:11:37.555Z,27.15
2022-12-03T06:14:42.125Z,25.95
2022-12-03T06:17:46.616Z,26.17
2022-12-03T06:20:51.328Z,29.40
2022-12-03T06:23:55.994Z,29.08
2022-12-03T06:27:00.484Z,24.70
2022-12-03T06:30:08.707Z,25.77
2022-12-03T06:33:13.528Z,26.55
2022-12-03T06:36:22.602Z,30.13
2022-12-03T06:39:28.118Z,29.70
2022-12-03T06:42:36.380Z,24.17
2022-12-03T06:45:47.417Z,24.42
2022-12-03T06:48:52.961Z,26.45
2022-12-03T06:51:57.905Z,28.20
2022-12-03T06:55:02.957Z,24.83
2022-12-03T06:58:07.664Z,26.60
2022-12-03T07:01:12.615Z,23.98
2022-12-03T07:04:20.167Z,25.00
2022-12-03T07:07:24.901Z,30.13
2022-12-03T07:10:29.715Z,26.30
2022-12-03T07:13:34.808Z,27.83
2022-12-03T07:16:40.033Z,24.98
2022-12-03T07:19:44.696Z,26.08
2022-12-03T07:22:49.659Z,24.52
2022-12-03T07:25:54.256Z,34.33
2022-12-03T07:28:59.036Z,26.33
2022-12-03T07:32:03.422Z,23.60
2022-12-03T07:35:08.835Z,27.88
2022-12-03T07:38:13.320Z,25.17
2022-12-03T07:41:18.119Z,32.20
2022-12-03T07:44:23.048Z,28.42
2022-12-03T07:47:28.488Z,29.05
2022-12-03T07:50:33.337Z,30.75
2022-12-03T07:53:38.336Z,33.00
2022-12-03T07:56:45.197Z,32.42
2022-12-03T07:59:55.088Z,33.35
2022-12-03T08:02:59.918Z,34.03
2022-12-03T08:06:05.205Z,29.48
2022-12-03T08:09:16.017Z,31.33
2022-12-03T08:12:40.310Z,33.80
2022-12-03T08:15:48.404Z,39.03
2022-12-03T08:18:57.689Z,31.75
2022-12-03T08:22:02.451Z,35.38
2022-12-03T08:25:15.011Z,35.03
2022-12-03T08:28:23.300Z,31.75
2022-12-03T08:31:33.231Z,38.78
2022-12-03T08:34:44.254Z,35.65
2022-12-03T08:38:12.015Z,38.60
2022-12-03T08:41:44.475Z,34.77
2022-12-03T08:44:49.318Z,35.63
2022-12-03T08:48:34.152Z,35.22
2022-12-03T08:51:38.866Z,36.95
2022-12-03T08:54:48.680Z,39.28
2022-12-03T08:57:53.984Z,41.45
2022-12-03T09:01:10.436Z,44.10
2022-12-03T09:04:28.722Z,41.42
2022-12-03T09:07:33.342Z,43.95
2022-12-03T09:10:38.128Z,51.88
2022-12-03T09:13:42.759Z,52.50
2022-12-03T09:16:48.078Z,50.75
2022-12-03T09:19:53.030Z,49.58
2022-12-03T09:22:57.558Z,46.70
2022-12-03T09:26:01.877Z,42.15
2022-12-03T09:29:11.669Z,47.35
2022-12-03T09:32:18.847Z,47.72
2022-12-03T09:35:25.957Z,49.42
2022-12-03T09:38:30.643Z,48.00
2022-12-03T09:41:35.736Z,53.25
2022-12-03T09:44:40.491Z,52.33
2022-12-03T09:47:48.961Z,50.67
2022-12-03T09:50:53.554Z,53.40
2022-12-03T09:54:03.971Z,50.30
2022-12-03T09:57:13.478Z,44.63
2022-12-03T10:00:24.686Z,51.80
2022-12-03T10:03:31.898Z,50.25
2022-12-03T10:06:39.886Z,49.63
2022-12-03T10:09:48.533Z,55.67
2022-12-03T10:12:53.401Z,50.22
2022-12-03T10:16:00.799Z,47.35
2022-12-03T10:19:05.410Z,55.30
2022-12-03T10:22:10.621Z,47.35
2022-12-03T10:25:19.167Z,48.47
2022-12-03T10:28:40.133Z,56.22
2022-12-03T10:31:44.978Z,55.58
2022-12-03T10:34:49.234Z,53.05
2022-12-03T10:38:23.184Z,49.00
2022-12-03T10:41:29.009Z,44.67
2022-12-03T10:44:33.611Z,45.35
2022-12-03T10:47:38.532Z,37.25
2022-12-03T10:50:55.876Z,43.15
2022-12-03T10:54:01.593Z,43.53
2022-12-03T10:57:06.156Z,40.85
2022-12-03T11:00:19.458Z,44.35
2022-12-03T11:03:27.568Z,39.80
2022-12-03T11:06:35.328Z,43.17
2022-12-03T11:09:43.000Z,42.72
2022-12-03T11:13:28.173Z,41.05
2022-12-03T11:16:41.489Z,41.03
2022-12-03T11:19:48.971Z,31.33
2022-12-03T11:22:55.291Z,40.38
2022-12-03T11:26:00.070Z,37.03
2022-12-03T11:29:15.418Z,37.88
2022-12-03T11:32:43.085Z,34.75
2022-12-03T11:36:02.947Z,37.13
2022-12-03T11:39:08.766Z,34.38
2022-12-03T11:42:27.940Z,35.78
2022-12-03T11:45:38.173Z,32.55
2022-12-03T11:48:46.471Z,33.10
2022-12-03T11:51:51.995Z,32.63
2022-12-03T11:55:32.951Z,34.10
2022-12-03T11:58:42.396Z,34.92
2022-12-03T12:01:47.475Z,33.00
2022-12-03T12:04:52.133Z,31.95
2022-12-03T12:07:57.440Z,38.72
2022-12-03T12:11:03.673Z,31.20
2022-12-03T12:14:13.391Z,37.17
2022-12-03T12:17:36.676Z,31.15
2022-12-03T12:20:41.260Z,33.58
2022-12-03T12:23:46.319Z,30.75
2022-12-03T12:26:52.120Z,33.45
2022-12-03T12:30:01.147Z,33.78
2022-12-03T12:33:22.990Z,35.85
2022-12-03T12:36:28.485Z,29.48
2022-12-03T12:39:33.178Z,30.65
2022-12-03T12:42:43.951Z,34.35
2022-12-03T12:45:48.751Z,30.33
2022-12-03T12:48:57.970Z,33.65
2022-12-03T12:52:10.825Z,30.65
2022-12-03T12:55:16.542Z,31.50
2022-12-03T12:58:22.121Z,29.40
2022-12-03T13:01:30.684Z,33.95
2022-12-03T13:04:40.004Z,27.77
2022-12-03T13:07:45.501Z,31.80
2022-12-03T13:11:16.347Z,29.95
2022-12-03T13:14:29.796Z,29.02
2022-12-03T13:17:34.518Z,34.05
2022-12-03T13:20:38.820Z,35.65
2022-12-03T13:23:43.551Z,34.97
2022-12-03T13:26:48.151Z,30.52
2022-12-03T13:30:01.368Z,35.13
2022-12-03T13:33:16.030Z,24.73
2022-12-03T13:36:35.831Z,29.38
2022-12-03T13:39:55.964Z,34.20
2022-12-03T13:43:05.031Z,34.72
2022-12-03T13:46:11.098Z,35.65
2022-12-03T13:49:21.219Z,34.92
2022-12-03T13:52:26.735Z,44.63
2022-12-03T13:56:00.461Z,34.35
2022-12-03T13:59:05.207Z,38.45
2022-12-03T14:02:10.125Z,30.08
2022-12-03T14:05:14.744Z,31.05
2022-12-03T14:08:19.132Z,37.08
2022-12-03T14:11:41.811Z,38.25
2022-12-03T14:14:46.138Z,34.83
2022-12-03T14:17:50.924Z,35.85
2022-12-03T14:20:55.653Z,36.75
2022-12-03T14:24:01.534Z,36.67
2022-12-03T14:27:06.420Z,34.40
2022-12-03T14:30:11.614Z,37.85
2022-12-03T14:33:15.864Z,39.47
2022-12-03T14:36:20.385Z,43.17
2022-12-03T14:39:24.779Z,35.03
2022-12-03T14:42:29.506Z,35.05
2022-12-03T14:45:34.121Z,35.78
2022-12-03T14:48:38.371Z,125.47
2022-12-03T14:51:42.936Z,40.70
2022-12-03T14:54:47.550Z,40.45
2022-12-03T14:57:52.997Z,37.00
2022-12-03T15:01:07.370Z,34.42
2022-12-03T15:04:13.958Z,35.33
2022-12-03T15:07:18.708Z,34.35
2022-12-03T15:10:24.446Z,35.30
2022-12-03T15:13:29.733Z,37.13
2022-12-03T15:16:35.414Z,31.00
2022-12-03T15:19:39.970Z,35.20
2022-12-03T15:22:44.782Z,34.55
2022-12-03T15:25:51.050Z,36.00
2022-12-03T15:28:56.052Z,35.53
2022-12-03T15:32:01.162Z,37.63
2022-12-03T15:35:06.554Z,33.03
2022-12-03T15:38:12.396Z,40.05
2022-12-03T15:41:25.029Z,37.78
2022-12-03T15:44:29.695Z,35.40
2022-12-03T15:47:34.314Z,40.20
2022-12-03T15:50:40.380Z,32.97
2022-12-03T15:53:45.239Z,43.30
2022-12-03T15:56:57.026Z,51.03
2022-12-03T16:00:02.357Z,44.03
2022-12-03T16:03:09.881Z,35.30
2022-12-03T16:06:14.906Z,44.70
2022-12-03T16:09:25.278Z,40.28
2022-12-03T16:12:31.558Z,37.67
2022-12-03T16:15:35.890Z,37.20
2022-12-03T16:18:41.080Z,33.13
2022-12-03T16:21:45.475Z,36.20
2022-12-03T16:25:30.108Z,39.22
2022-12-03T16:28:40.530Z,37.92
2022-12-03T16:32:12.531Z,38.35
2022-12-03T16:35:21.752Z,36.20
2022-12-03T16:38:34.963Z,37.05
2022-12-03T16:41:59.361Z,33.63
2022-12-03T16:45:40.787Z,36.50
2022-12-03T16:48:57.144Z,36.75
2022-12-03T16:52:06.885Z,36.35
2022-12-03T16:55:11.738Z,41.90
2022-12-03T16:58:22.736Z,44.30
2022-12-03T17:01:34.955Z,34.58
2022-12-03T17:04:46.113Z,42.25
2022-12-03T17:08:07.242Z,39.97
2022-12-03T17:11:33.289Z,36.70
2022-12-03T17:14:42.297Z,41.95
2022-12-03T17:17:59.867Z,38.60
2022-12-03T17:21:07.774Z,39.50
2022-12-03T17:24:12.637Z,44.15
2022-12-03T17:27:24.855Z,46.97
2022-12-03T17:30:35.090Z,44.90
2022-12-03T17:33:44.152Z,40.55
2022-12-03T17:36:51.494Z,42.33
2022-12-03T17:39:56.495Z,48.80
2022-12-03T17:43:04.189Z,47.80
2022-12-03T17:46:14.053Z,44.80
2022-12-03T17:50:01.517Z,43.80
2022-12-03T17:53:12.893Z,51.15
2022-12-03T18:00:05.053Z,48.58
2022-12-03T18:03:23.691Z,45.35
2022-12-03T18:06:45.639Z,51.65
2022-12-03T18:09:57.894Z,46.00
2022-12-03T18:13:06.887Z,48.45
2022-12-03T18:16:23.936Z,50.08
2022-12-03T18:19:39.725Z,59.58
2022-12-03T18:22:47.148Z,44.40
2022-12-03T18:25:55.417Z,52.10
2022-12-03T18:29:00.517Z,51.35
2022-12-03T18:32:27.677Z,49.60
2022-12-03T18:35:33.792Z,46.70
2022-12-03T18:38:41.339Z,76.57
2022-12-03T18:41:48.699Z,46.30
2022-12-03T18:45:00.414Z,76.43
2022-12-03T18:48:20.125Z,54.40
2022-12-03T18:51:27.875Z,55.58
2022-12-03T18:54:32.738Z,48.05
2022-12-03T18:57:37.175Z,52.80
2022-12-03T19:00:56.627Z,49.70
2022-12-03T19:04:05.954Z,53.15
2022-12-03T19:07:13.665Z,53.65
2022-12-03T19:10:18.971Z,48.90
2022-12-03T19:13:32.060Z,54.92
2022-12-03T19:16:43.522Z,50.97
2022-12-03T19:20:00.553Z,48.95
2022-12-03T19:23:05.785Z,43.80
2022-12-03T19:26:14.524Z,46.00
2022-12-03T19:29:25.905Z,58.60
2022-12-03T19:32:34.289Z,68.28
2022-12-03T19:35:45.655Z,78.75
2022-12-03T19:38:57.392Z,51.75
2022-12-03T19:42:05.517Z,50.33
2022-12-03T19:45:17.120Z,57.17
2022-12-03T19:48:28.194Z,51.70
2022-12-03T19:51:35.632Z,63.60
2022-12-03T19:54:47.933Z,51.28
2022-12-03T19:57:55.305Z,55.03
2022-12-03T20:01:28.608Z,80.28
2022-12-03T20:04:35.773Z,49.70
2022-12-03T20:07:40.331Z,48.90
2022-12-03T20:10:59.622Z,52.58
2022-12-03T20:14:26.657Z,38.83
2022-12-03T20:17:47.101Z,58.75
2022-12-03T20:20:57.092Z,42.40
2022-12-03T20:24:02.776Z,38.00
2022-12-03T20:27:09.695Z,32.00
2022-12-03T20:30:25.822Z,30.15
2022-12-03T20:33:36.307Z,30.42
2022-12-03T20:36:50.036Z,29.73
2022-12-03T20:39:55.017Z,35.92
2022-12-03T20:43:03.949Z,30.45
2022-12-03T20:46:27.911Z,41.55
2022-12-03T20:49:44.527Z,32.20
2022-12-03T20:53:24.249Z,42.15
2022-12-03T20:56:41.199Z,33.00
2022-12-03T20:59:50.436Z,43.13
2022-12-03T21:02:58.220Z,34.78
2022-12-03T21:06:07.347Z,39.58
2022-12-03T21:09:19.373Z,34.38
2022-12-03T21:12:49.990Z,36.58
2022-12-03T21:16:11.593Z,44.90
2022-12-03T21:19:27.373Z,39.72
2022-12-03T21:23:01.699Z,33.13
2022-12-03T21:26:31.763Z,36.88
2022-12-03T21:30:10.217Z,30.00
2022-12-03T21:34:10.114Z,37.67
2022-12-03T21:42:36.058Z,36.28
2022-12-03T21:47:10.360Z,41.13
2022-12-03T21:49:55.951Z,30.58
2022-12-03T21:53:11.656Z,35.70
2022-12-03T21:56:25.589Z,43.58
2022-12-03T22:00:18.124Z,45.35
2022-12-03T22:03:29.560Z,54.60
2022-12-03T22:07:12.893Z,46.20
2022-12-03T22:10:20.754Z,44.03
2022-12-03T22:13:33.286Z,48.78
2022-12-03T22:16:48.378Z,49.30
2022-12-03T22:20:22.986Z,52.78
2022-12-03T22:23:42.199Z,62.72
2022-12-03T22:27:11.343Z,56.78
2022-12-03T22:30:27.043Z,59.20
2022-12-03T22:37:30.991Z,64.38
2022-12-03T22:40:44.459Z,65.13
2022-12-03T22:43:53.901Z,74.25
2022-12-03T22:47:05.299Z,73.13
2022-12-03T22:50:25.844Z,69.95
2022-12-03T22:57:07.156Z,76.82
2022-12-03T23:00:33.340Z,74.28
2022-12-03T23:03:55.224Z,68.82
2022-12-03T23:07:13.060Z,64.25
2022-12-03T23:10:34.335Z,80.43
2022-12-03T23:13:50.992Z,78.97
2022-12-03T23:17:14.048Z,68.05
2022-12-03T23:20:36.911Z,79.50
2022-12-03T23:23:44.330Z,78.85
2022-12-03T23:27:00.181Z,72.75
2022-12-03T23:30:16.291Z,70.28
2022-12-03T23:33:38.364Z,67.95
2022-12-03T23:36:54.593Z,62.83
2022-12-03T23:40:04.938Z,69.25
2022-12-03T23:43:25.691Z,65.18
2022-12-03T23:46:43.095Z,63.17
2022-12-03T23:50:00.883Z,56.67
2022-12-03T23:53:13.906Z,64.75
2022-12-03T23:56:32.703Z,70.90
